Ganserndorf, Austria
Current Conditions -  °F | °C
As of 8:20 AM on Monday 22 Dec 2014 (Local Time) from LOWW Reporting Station
Broken Clouds Broken Clouds  
Wind Chill: 36°   Ceiling: 9000
Heat Index: 45°   Visibility: 6mi
Dew Point: 32°   Wind: 22mph
Humidity: 61%   Direction: 280°W
Pressure: 30.18"   Gusts: NA
Location:  48.34°N, 16.72°E
Report Text: LOWW 220620Z 28019KT 9999 FEW035 BKN090 07/M00 Q1022 NOSIG
Loading
Personal Weather Stations






























Interactive Weather Map New forecast layout! Learn more

10-Day Weather Forecast

Advertisements
Track Severe Weather on mobile